createdAt,value
2022-08-17T00:02:26.399Z,4.43
2022-08-17T00:04:55.077Z,4.40
2022-08-17T00:07:23.071Z,4.10
2022-08-17T00:09:50.781Z,3.80
2022-08-17T00:12:41.694Z,5.00
2022-08-17T00:15:10.652Z,4.33
2022-08-17T00:17:38.990Z,4.07
2022-08-17T00:20:07.487Z,3.97
2022-08-17T00:22:36.629Z,4.40
2022-08-17T00:25:07.194Z,4.10
2022-08-17T00:27:36.850Z,4.00
2022-08-17T00:30:07.968Z,4.10
2022-08-17T00:33:23.465Z,4.10
2022-08-17T00:35:28.602Z,4.60
2022-08-17T00:37:56.330Z,4.20
2022-08-17T00:40:24.746Z,5.00
2022-08-17T00:42:54.175Z,4.47
2022-08-17T00:45:23.082Z,4.87
2022-08-17T00:47:50.661Z,4.60
2022-08-17T00:50:20.578Z,4.63
2022-08-17T00:52:55.935Z,4.83
2022-08-17T00:55:25.294Z,4.40
2022-08-17T00:57:58.374Z,4.40
2022-08-17T01:00:28.898Z,4.50
2022-08-17T01:02:59.879Z,4.63
2022-08-17T01:05:31.831Z,4.40
2022-08-17T01:08:01.217Z,5.13
2022-08-17T01:10:58.625Z,4.53
2022-08-17T01:13:24.502Z,4.33
2022-08-17T01:15:57.740Z,4.03
2022-08-17T01:18:27.145Z,4.30
2022-08-17T01:20:57.518Z,4.60
2022-08-17T01:23:27.494Z,4.60
2022-08-17T01:25:58.458Z,4.53
2022-08-17T01:28:53.040Z,4.40
2022-08-17T01:31:16.098Z,4.57
2022-08-17T01:33:43.790Z,4.57
2022-08-17T01:36:11.561Z,3.90
2022-08-17T01:38:41.336Z,4.23
2022-08-17T01:41:12.215Z,4.40
2022-08-17T01:43:45.005Z,4.10
2022-08-17T01:46:16.652Z,5.50
2022-08-17T01:48:47.384Z,4.67
2022-08-17T01:51:16.440Z,4.27
2022-08-17T01:53:51.564Z,4.70
2022-08-17T01:56:23.021Z,4.20
2022-08-17T01:58:50.601Z,4.43
2022-08-17T02:01:20.236Z,4.70
2022-08-17T02:03:56.113Z,4.63
2022-08-17T02:06:28.931Z,5.07
2022-08-17T02:09:03.111Z,4.90
2022-08-17T02:11:33.206Z,4.07
2022-08-17T02:14:03.176Z,4.53
2022-08-17T02:16:37.677Z,4.50
2022-08-17T02:19:08.351Z,4.93
2022-08-17T02:21:36.985Z,4.43
2022-08-17T02:24:09.244Z,4.77
2022-08-17T02:26:37.064Z,4.23
2022-08-17T02:29:05.075Z,4.83
2022-08-17T02:31:33.170Z,4.63
2022-08-17T02:34:04.554Z,4.07
2022-08-17T02:36:33.748Z,4.60
2022-08-17T02:39:01.951Z,4.40
2022-08-17T02:41:31.223Z,4.97
2022-08-17T02:43:58.867Z,4.67
2022-08-17T02:46:26.651Z,4.00
2022-08-17T02:48:54.297Z,5.00
2022-08-17T02:51:21.905Z,4.70
2022-08-17T02:53:49.585Z,4.87
2022-08-17T02:56:17.300Z,5.10
2022-08-17T02:58:46.360Z,4.33
2022-08-17T03:01:14.297Z,4.17
2022-08-17T03:03:42.318Z,5.13
2022-08-17T03:06:10.640Z,4.80
2022-08-17T03:08:38.510Z,4.77
2022-08-17T03:11:06.227Z,4.23
2022-08-17T03:13:34.039Z,4.93
2022-08-17T03:16:04.112Z,4.57
2022-08-17T03:18:31.884Z,4.30
2022-08-17T03:21:01.727Z,3.90
2022-08-17T03:23:30.288Z,4.40
2022-08-17T03:25:58.302Z,4.50
2022-08-17T03:28:27.752Z,4.07
2022-08-17T03:30:55.419Z,4.87
2022-08-17T03:33:24.413Z,4.73
2022-08-17T03:35:52.173Z,4.30
2022-08-17T03:38:19.920Z,4.07
2022-08-17T03:40:56.879Z,4.37
2022-08-17T03:43:28.399Z,4.97
2022-08-17T03:46:28.042Z,4.30
2022-08-17T03:49:19.260Z,4.57
2022-08-17T03:52:04.421Z,4.23
2022-08-17T03:54:49.701Z,4.00
2022-08-17T03:57:17.296Z,3.77
2022-08-17T03:59:45.287Z,4.00
2022-08-17T04:02:18.729Z,4.50
2022-08-17T04:04:50.596Z,4.20
2022-08-17T04:07:18.430Z,4.17
2022-08-17T04:09:46.048Z,4.10
2022-08-17T04:12:16.425Z,4.73
2022-08-17T04:14:52.626Z,4.50
2022-08-17T04:17:23.279Z,4.30
2022-08-17T04:19:52.553Z,4.10
2022-08-17T04:22:32.789Z,4.17
2022-08-17T04:25:07.974Z,3.83
2022-08-17T04:27:35.804Z,4.43
2022-08-17T04:30:03.605Z,3.80
2022-08-17T04:32:59.337Z,4.47
2022-08-17T04:35:22.120Z,4.50
2022-08-17T04:37:49.894Z,4.80
2022-08-17T04:40:36.430Z,4.40
2022-08-17T04:43:07.063Z,3.97
2022-08-17T04:45:34.955Z,4.13
2022-08-17T04:48:02.827Z,4.43
2022-08-17T04:50:31.888Z,4.60
2022-08-17T04:52:59.824Z,4.33
2022-08-17T04:55:27.602Z,4.40
2022-08-17T04:57:55.445Z,4.00
2022-08-17T05:00:25.702Z,4.50
2022-08-17T05:02:55.057Z,5.00
2022-08-17T05:05:24.544Z,4.00
2022-08-17T05:07:54.462Z,5.13
2022-08-17T05:10:22.510Z,4.17
2022-08-17T05:12:58.582Z,4.80
2022-08-17T05:15:26.513Z,4.27
2022-08-17T05:17:54.497Z,5.00
2022-08-17T05:20:23.085Z,4.70
2022-08-17T05:22:54.599Z,4.17
2022-08-17T05:25:24.995Z,4.93
2022-08-17T05:27:54.160Z,4.57
2022-08-17T05:30:22.631Z,4.47
2022-08-17T05:32:55.327Z,4.90
2022-08-17T05:35:23.959Z,4.50
2022-08-17T05:37:53.699Z,4.43
2022-08-17T05:40:25.958Z,4.37
2022-08-17T05:43:04.171Z,4.70
2022-08-17T05:45:55.362Z,4.20
2022-08-17T05:48:20.972Z,4.33
2022-08-17T05:51:13.371Z,3.77
2022-08-17T05:53:54.887Z,3.97
2022-08-17T05:56:33.778Z,4.30
2022-08-17T05:59:09.554Z,4.37
2022-08-17T06:01:49.706Z,3.70
2022-08-17T06:04:27.756Z,4.57
2022-08-17T06:07:02.816Z,4.50
2022-08-17T06:09:40.478Z,3.73
2022-08-17T06:12:26.232Z,4.03
2022-08-17T06:15:19.408Z,4.03
2022-08-17T06:17:47.633Z,3.90
2022-08-17T06:20:17.108Z,4.27
2022-08-17T06:22:50.444Z,4.27
2022-08-17T06:25:24.403Z,4.97
2022-08-17T06:27:57.073Z,4.70
2022-08-17T06:30:27.596Z,4.23
2022-08-17T06:33:05.705Z,4.63
2022-08-17T06:35:43.780Z,4.00
2022-08-17T06:38:37.178Z,4.90
2022-08-17T06:41:16.602Z,4.60
2022-08-17T06:43:56.639Z,4.10
2022-08-17T06:46:35.786Z,4.80
2022-08-17T06:49:14.818Z,5.00
2022-08-17T06:51:46.401Z,4.43
2022-08-17T06:54:18.876Z,5.17
2022-08-17T06:56:55.206Z,4.90
2022-08-17T06:59:55.000Z,5.50
2022-08-17T07:02:52.363Z,5.40
2022-08-17T07:05:24.780Z,5.60
2022-08-17T07:08:04.309Z,6.03
2022-08-17T07:10:45.530Z,5.77
2022-08-17T07:13:51.099Z,5.30
2022-08-17T07:16:24.790Z,5.30
2022-08-17T07:18:54.798Z,5.20
2022-08-17T07:21:41.217Z,5.40
2022-08-17T07:24:29.701Z,5.40
2022-08-17T07:27:13.602Z,5.77
2022-08-17T07:29:47.647Z,5.20
2022-08-17T07:32:19.032Z,5.23
2022-08-17T07:35:15.224Z,4.80
2022-08-17T07:37:46.760Z,5.20
2022-08-17T07:40:27.904Z,5.07
2022-08-17T07:43:07.667Z,4.97
2022-08-17T07:46:12.226Z,4.67
2022-08-17T07:48:43.046Z,6.17
2022-08-17T07:51:20.200Z,5.60
2022-08-17T07:53:48.234Z,6.07
2022-08-17T07:56:36.176Z,5.17
2022-08-17T07:59:18.361Z,4.83
2022-08-17T08:02:08.071Z,5.70
2022-08-17T08:04:59.781Z,5.47
2022-08-17T08:07:34.739Z,5.00
2022-08-17T08:10:09.035Z,5.37
2022-08-17T08:12:39.426Z,5.70
2022-08-17T08:15:18.625Z,5.83
2022-08-17T08:17:51.805Z,5.00
2022-08-17T08:20:34.982Z,5.50
2022-08-17T08:23:20.995Z,5.20
2022-08-17T08:25:59.447Z,5.97
2022-08-17T08:28:34.918Z,5.37
2022-08-17T08:31:08.071Z,5.10
2022-08-17T08:33:49.837Z,4.97
2022-08-17T08:37:14.260Z,4.93
2022-08-17T08:39:33.916Z,6.23
2022-08-17T08:42:12.561Z,7.00
2022-08-17T08:44:59.737Z,5.60
2022-08-17T08:47:48.413Z,5.77
2022-08-17T08:50:37.808Z,6.00
2022-08-17T08:53:28.540Z,5.70
2022-08-17T08:56:04.518Z,6.20
2022-08-17T08:58:42.612Z,6.00
2022-08-17T09:01:19.286Z,6.13
2022-08-17T09:04:21.385Z,6.00
2022-08-17T09:07:05.377Z,5.70
2022-08-17T09:09:44.105Z,5.90
2022-08-17T09:12:21.218Z,5.30
2022-08-17T09:15:01.230Z,5.13
2022-08-17T09:17:40.060Z,5.80
2022-08-17T09:20:27.338Z,5.90
2022-08-17T09:23:03.992Z,5.83
2022-08-17T09:25:36.067Z,5.30
2022-08-17T09:28:07.670Z,5.40
2022-08-17T09:30:42.155Z,6.40
2022-08-17T09:33:12.518Z,5.57
2022-08-17T09:35:45.351Z,5.77
2022-08-17T09:38:23.432Z,6.13
2022-08-17T09:40:56.609Z,5.07
2022-08-17T09:43:35.216Z,6.30
2022-08-17T09:46:08.913Z,5.33
2022-08-17T09:48:41.552Z,5.67
2022-08-17T09:51:14.487Z,5.60
2022-08-17T09:53:44.827Z,5.70
2022-08-17T09:56:35.823Z,6.20
2022-08-17T09:59:18.166Z,5.57
2022-08-17T10:01:52.683Z,6.47
2022-08-17T10:04:33.201Z,5.60
2022-08-17T10:07:08.065Z,5.90
2022-08-17T10:09:49.540Z,5.33
2022-08-17T10:12:30.232Z,6.53
2022-08-17T10:15:13.402Z,6.17
2022-08-17T10:17:53.962Z,6.17
2022-08-17T10:20:26.871Z,5.20
2022-08-17T10:23:17.663Z,5.27
2022-08-17T10:26:08.873Z,5.77
2022-08-17T10:28:43.513Z,5.90
2022-08-17T10:31:34.212Z,5.90
2022-08-17T10:34:19.872Z,8.57
2022-08-17T10:36:55.247Z,5.10
2022-08-17T10:39:31.926Z,5.40
2022-08-17T10:42:16.336Z,8.40
2022-08-17T10:45:06.356Z,7.50
2022-08-17T10:48:04.689Z,6.17
2022-08-17T10:50:50.312Z,16.33
2022-08-17T10:53:53.100Z,5.80
2022-08-17T10:56:40.299Z,5.03
2022-08-17T10:59:09.828Z,5.37
2022-08-17T11:01:58.286Z,5.40
2022-08-17T11:04:43.112Z,6.40
2022-08-17T11:07:18.797Z,5.67
2022-08-17T11:10:06.876Z,6.23
2022-08-17T11:12:42.356Z,6.00
2022-08-17T11:15:26.790Z,6.07
2022-08-17T11:18:37.182Z,5.80
2022-08-17T11:21:18.446Z,6.13
2022-08-17T11:24:03.759Z,6.10
2022-08-17T11:26:34.490Z,5.90
2022-08-17T11:29:05.134Z,6.57
2022-08-17T11:31:39.879Z,6.03
2022-08-17T11:34:15.089Z,6.00
2022-08-17T11:37:05.117Z,5.70
2022-08-17T11:39:46.941Z,5.50
2022-08-17T11:42:34.702Z,5.40
2022-08-17T11:45:32.566Z,5.20
2022-08-17T11:48:31.031Z,5.27
2022-08-17T11:51:25.062Z,4.73
2022-08-17T11:54:32.293Z,4.93
2022-08-17T11:57:02.263Z,5.17
2022-08-17T11:59:59.615Z,5.40
2022-08-17T12:02:48.066Z,4.90
2022-08-17T12:05:32.879Z,5.17
2022-08-17T12:08:09.026Z,5.17
2022-08-17T12:10:48.877Z,5.10
2022-08-17T12:13:19.132Z,4.07
2022-08-17T12:15:50.394Z,4.43
2022-08-17T12:18:22.949Z,3.90
2022-08-17T12:21:15.444Z,4.80
2022-08-17T12:23:56.025Z,4.70
2022-08-17T12:26:27.393Z,3.97
2022-08-17T12:29:01.143Z,4.60
2022-08-17T12:31:34.609Z,4.40
2022-08-17T12:34:03.969Z,3.97
2022-08-17T12:36:34.539Z,4.33
2022-08-17T12:39:13.847Z,4.60
2022-08-17T12:41:45.869Z,4.23
2022-08-17T12:44:17.791Z,4.10
2022-08-17T12:46:55.979Z,4.10
2022-08-17T12:49:30.572Z,4.20
2022-08-17T12:52:14.482Z,3.70
2022-08-17T12:54:48.317Z,3.80
2022-08-17T12:57:19.891Z,3.93
2022-08-17T12:59:54.295Z,4.40
2022-08-17T13:02:29.716Z,3.80
2022-08-17T13:04:59.693Z,3.90
2022-08-17T13:07:32.689Z,4.13
2022-08-17T13:10:00.663Z,3.70
2022-08-17T13:12:31.161Z,4.50
2022-08-17T13:14:59.792Z,3.43
2022-08-17T13:17:31.246Z,4.73
2022-08-17T13:19:59.697Z,4.00
2022-08-17T13:22:30.536Z,3.90
2022-08-17T13:25:03.588Z,4.43
2022-08-17T13:27:32.807Z,3.70
2022-08-17T13:30:03.362Z,3.40
2022-08-17T13:32:40.435Z,4.03
2022-08-17T13:35:50.259Z,4.00
2022-08-17T13:38:40.457Z,4.00
2022-08-17T13:41:08.826Z,4.10
2022-08-17T13:43:44.537Z,4.33
2022-08-17T13:46:21.024Z,3.80
2022-08-17T13:48:59.847Z,4.33
2022-08-17T13:51:34.223Z,4.03
2022-08-17T13:54:21.653Z,3.77
2022-08-17T13:56:58.628Z,3.63
2022-08-17T13:59:52.694Z,3.80
2022-08-17T14:02:20.915Z,4.00
2022-08-17T14:04:50.214Z,4.60
2022-08-17T14:07:33.719Z,3.90
2022-08-17T14:10:08.728Z,4.17
2022-08-17T14:12:39.084Z,3.87
2022-08-17T14:15:08.694Z,3.80
2022-08-17T14:17:38.853Z,4.37
2022-08-17T14:20:09.477Z,4.30
2022-08-17T14:22:39.837Z,3.83
2022-08-17T14:25:12.182Z,3.67
2022-08-17T14:27:41.801Z,3.13
2022-08-17T14:30:23.339Z,3.53
2022-08-17T14:32:51.973Z,3.10
2022-08-17T14:35:22.214Z,3.80
2022-08-17T14:37:50.615Z,3.13
2022-08-17T14:40:26.783Z,3.10
2022-08-17T14:42:56.241Z,3.57
2022-08-17T14:45:29.881Z,3.57
2022-08-17T14:48:01.161Z,3.50
2022-08-17T14:50:28.829Z,3.53
2022-08-17T14:52:57.874Z,3.80
2022-08-17T14:55:27.551Z,3.63
2022-08-17T14:57:55.225Z,4.17
2022-08-17T15:00:23.578Z,3.40
2022-08-17T15:02:53.686Z,3.67
2022-08-17T15:05:22.749Z,3.40
2022-08-17T15:07:50.506Z,3.73
2022-08-17T15:10:18.521Z,3.83
2022-08-17T15:12:47.564Z,4.10
2022-08-17T15:15:17.548Z,3.90
2022-08-17T15:17:54.781Z,3.90
2022-08-17T15:20:25.017Z,3.80
2022-08-17T15:22:55.100Z,4.17
2022-08-17T15:25:23.532Z,3.40
2022-08-17T15:27:52.781Z,3.63
2022-08-17T15:30:21.561Z,3.67
2022-08-17T15:32:51.132Z,4.07
2022-08-17T15:35:26.870Z,3.93
2022-08-17T15:37:56.897Z,3.87
2022-08-17T15:40:25.010Z,3.53
2022-08-17T15:42:53.969Z,3.50
2022-08-17T15:45:26.317Z,3.57
2022-08-17T15:47:54.119Z,3.50
2022-08-17T15:50:22.130Z,4.00
2022-08-17T15:52:55.779Z,3.30
2022-08-17T15:55:24.378Z,3.67
2022-08-17T15:57:53.071Z,3.70
2022-08-17T16:00:24.120Z,3.23
2022-08-17T16:03:45.965Z,3.87
2022-08-17T16:05:41.098Z,3.87
2022-08-17T16:08:10.848Z,4.10
2022-08-17T16:10:38.512Z,3.83
2022-08-17T16:13:06.228Z,4.53
2022-08-17T16:15:56.696Z,4.10
2022-08-17T16:18:26.532Z,3.43
2022-08-17T16:20:54.908Z,4.50
2022-08-17T16:23:22.643Z,4.63
2022-08-17T16:25:53.559Z,4.30
2022-08-17T16:28:21.818Z,4.20
2022-08-17T16:30:50.789Z,3.80
2022-08-17T16:33:18.566Z,4.20
2022-08-17T16:35:46.245Z,3.90
2022-08-17T16:38:13.978Z,3.83
2022-08-17T16:40:42.409Z,3.70
2022-08-17T16:43:11.913Z,4.40
2022-08-17T16:45:40.655Z,3.60
2022-08-17T16:48:11.801Z,3.70
2022-08-17T16:50:40.256Z,4.00
2022-08-17T16:53:10.470Z,3.53
2022-08-17T16:55:39.239Z,3.40
2022-08-17T16:58:08.808Z,4.00
2022-08-17T17:00:37.378Z,3.43
2022-08-17T17:03:19.432Z,3.50
2022-08-17T17:05:58.395Z,3.70
2022-08-17T17:08:31.285Z,3.70
2022-08-17T17:11:04.094Z,3.93
2022-08-17T17:13:44.439Z,3.87
2022-08-17T17:16:21.576Z,4.43
2022-08-17T17:19:04.411Z,4.00
2022-08-17T17:21:40.295Z,5.40
2022-08-17T17:24:12.595Z,4.77
2022-08-17T17:26:52.418Z,4.10
2022-08-17T17:29:35.796Z,4.60
2022-08-17T17:32:22.426Z,3.60
2022-08-17T17:34:58.728Z,4.00
2022-08-17T17:37:33.065Z,4.27
2022-08-17T17:40:06.054Z,3.90
2022-08-17T17:42:33.916Z,4.43
2022-08-17T17:45:07.836Z,4.60
2022-08-17T17:47:37.315Z,3.63
2022-08-17T17:50:08.049Z,4.97
2022-08-17T17:52:47.404Z,4.20
2022-08-17T17:55:26.217Z,4.53
2022-08-17T17:58:03.616Z,4.13
2022-08-17T18:00:38.823Z,4.70
2022-08-17T18:03:21.954Z,4.37
2022-08-17T18:06:04.920Z,4.60
2022-08-17T18:08:48.947Z,3.87
2022-08-17T18:11:45.189Z,4.27
2022-08-17T18:14:27.290Z,4.30
2022-08-17T18:16:58.952Z,4.20
2022-08-17T18:19:28.713Z,4.00
2022-08-17T18:22:07.084Z,4.17
2022-08-17T18:24:38.609Z,4.10
2022-08-17T18:27:20.611Z,4.10
2022-08-17T18:29:49.397Z,3.97
2022-08-17T18:32:28.756Z,4.27
2022-08-17T18:34:59.290Z,4.60
2022-08-17T18:37:44.999Z,4.23
2022-08-17T18:40:35.089Z,4.23
2022-08-17T18:43:07.952Z,4.07
2022-08-17T18:45:40.757Z,4.77
2022-08-17T18:48:28.173Z,4.50
2022-08-17T18:50:58.719Z,4.20
2022-08-17T18:53:38.634Z,4.80
2022-08-17T18:56:30.568Z,4.77
2022-08-17T18:59:23.565Z,4.60
2022-08-17T19:02:32.447Z,5.07
2022-08-17T19:05:13.198Z,4.80
2022-08-17T19:07:43.454Z,5.00
2022-08-17T19:10:25.089Z,4.80
2022-08-17T19:13:00.708Z,5.20
2022-08-17T19:15:39.488Z,4.93
2022-08-17T19:18:15.972Z,4.77
2022-08-17T19:20:48.565Z,4.83
2022-08-17T19:23:22.096Z,5.10
2022-08-17T19:25:53.953Z,5.57
2022-08-17T19:28:25.761Z,5.10
2022-08-17T19:30:58.345Z,5.27
2022-08-17T19:33:27.407Z,5.10
2022-08-17T19:36:02.179Z,5.70
2022-08-17T19:38:48.154Z,5.60
2022-08-17T19:41:24.281Z,5.03
2022-08-17T19:44:03.509Z,5.37
2022-08-17T19:46:43.078Z,4.97
2022-08-17T19:49:34.470Z,5.90
2022-08-17T19:52:28.830Z,5.37
2022-08-17T19:55:03.488Z,5.67
2022-08-17T19:57:44.956Z,6.13
2022-08-17T20:00:16.952Z,5.50
2022-08-17T20:02:55.210Z,6.90
2022-08-17T20:05:28.041Z,6.77
2022-08-17T20:07:58.962Z,7.50
2022-08-17T20:10:48.084Z,7.67
2022-08-17T20:13:33.515Z,7.57
2022-08-17T20:16:02.221Z,6.73
2022-08-17T20:18:50.425Z,6.10
2022-08-17T20:21:20.902Z,6.57
2022-08-17T20:23:54.210Z,6.63
2022-08-17T20:26:26.317Z,6.43
2022-08-17T20:29:36.795Z,7.10
2022-08-17T20:32:16.081Z,6.40
2022-08-17T20:34:47.447Z,6.67
2022-08-17T20:37:31.819Z,6.33
2022-08-17T20:40:24.117Z,6.40
2022-08-17T20:42:51.732Z,6.40
2022-08-17T20:45:54.990Z,6.57
2022-08-17T20:48:37.951Z,6.40
2022-08-17T20:51:20.125Z,6.87
2022-08-17T20:54:23.349Z,6.83
2022-08-17T20:56:56.230Z,6.90
2022-08-17T21:00:13.722Z,7.20
2022-08-17T21:02:44.575Z,6.80
2022-08-17T21:05:34.532Z,6.87
2022-08-17T21:08:14.108Z,7.53
2022-08-17T21:10:46.927Z,7.43
2022-08-17T21:14:01.756Z,7.53
2022-08-17T21:16:38.670Z,7.03
2022-08-17T21:19:22.561Z,6.50
2022-08-17T21:22:01.177Z,6.97
2022-08-17T21:24:41.431Z,6.80
2022-08-17T21:27:23.442Z,5.67
2022-08-17T21:30:14.543Z,6.07
2022-08-17T21:32:45.891Z,6.80
2022-08-17T21:35:31.070Z,6.93
2022-08-17T21:38:04.885Z,6.13
2022-08-17T21:40:34.800Z,6.30
2022-08-17T21:43:16.884Z,5.80
2022-08-17T21:45:54.385Z,5.73
2022-08-17T21:48:23.880Z,6.40
2022-08-17T21:51:02.229Z,6.80
2022-08-17T21:53:37.461Z,6.13
2022-08-17T21:56:06.087Z,5.70
2022-08-17T21:58:36.689Z,5.90
2022-08-17T22:01:14.575Z,5.43
2022-08-17T22:03:42.851Z,5.70
2022-08-17T22:06:24.017Z,5.40
2022-08-17T22:09:04.384Z,5.37
2022-08-17T22:11:32.466Z,6.00
2022-08-17T22:14:05.106Z,6.03
2022-08-17T22:16:33.796Z,6.50
2022-08-17T22:19:01.595Z,6.17
2022-08-17T22:21:30.554Z,5.90
2022-08-17T22:24:05.008Z,6.47
2022-08-17T22:27:00.223Z,5.40
2022-08-17T22:29:57.406Z,6.40
2022-08-17T22:32:41.924Z,6.10
2022-08-17T22:35:35.468Z,6.53
2022-08-17T22:38:28.664Z,6.30
2022-08-17T22:41:13.496Z,6.20
2022-08-17T22:43:43.672Z,6.77
2022-08-17T22:46:14.878Z,6.47
2022-08-17T22:48:50.076Z,6.03
2022-08-17T22:51:21.612Z,6.13
2022-08-17T22:54:11.506Z,6.30
2022-08-17T22:57:04.388Z,7.20
2022-08-17T22:59:44.261Z,6.57
2022-08-17T23:02:32.864Z,6.40
2022-08-17T23:05:21.838Z,6.60
2022-08-17T23:07:52.874Z,6.30
2022-08-17T23:10:22.028Z,6.93
2022-08-17T23:12:49.658Z,7.10
2022-08-17T23:15:19.110Z,5.97
2022-08-17T23:17:47.676Z,7.10
2022-08-17T23:20:17.429Z,6.80
2022-08-17T23:22:52.026Z,5.80
2022-08-17T23:25:27.935Z,6.73
2022-08-17T23:27:57.463Z,6.67
2022-08-17T23:30:28.374Z,7.10
2022-08-17T23:32:56.915Z,7.10
2022-08-17T23:35:39.011Z,6.77
2022-08-17T23:38:08.874Z,6.50
2022-08-17T23:40:39.768Z,6.43
2022-08-17T23:43:23.720Z,7.33
2022-08-17T23:45:52.754Z,6.13
2022-08-17T23:48:28.533Z,6.30
2022-08-17T23:51:05.742Z,7.17
2022-08-17T23:53:36.194Z,7.13
2022-08-17T23:56:10.493Z,6.80
2022-08-17T23:58:39.352Z,6.17
